sensor_id;sensor_type;location;lat;lon;timestamp;P1;durP1;ratioP1;P2;durP2;ratioP2
32292;SDS011;43233;48.608;8.838;2022-10-26T00:00:46;3.80;;;2.93;;
32292;SDS011;43233;48.608;8.838;2022-10-26T00:03:12;7.03;;;2.30;;
32292;SDS011;43233;48.608;8.838;2022-10-26T00:05:38;2.70;;;2.43;;
32292;SDS011;43233;48.608;8.838;2022-10-26T00:08:04;2.37;;;2.17;;
32292;SDS011;43233;48.608;8.838;2022-10-26T00:10:32;2.73;;;2.33;;
32292;SDS011;43233;48.608;8.838;2022-10-26T00:12:58;2.30;;;2.10;;
32292;SDS011;43233;48.608;8.838;2022-10-26T00:15:24;2.67;;;2.47;;
32292;SDS011;43233;48.608;8.838;2022-10-26T00:17:49;4.17;;;2.63;;
32292;SDS011;43233;48.608;8.838;2022-10-26T00:20:15;6.33;;;2.80;;
32292;SDS011;43233;48.608;8.838;2022-10-26T00:22:41;5.70;;;3.10;;
32292;SDS011;43233;48.608;8.838;2022-10-26T00:25:07;8.60;;;3.40;;
32292;SDS011;43233;48.608;8.838;2022-10-26T00:27:33;3.30;;;2.73;;
32292;SDS011;43233;48.608;8.838;2022-10-26T00:29:59;10.53;;;3.23;;
32292;SDS011;43233;48.608;8.838;2022-10-26T00:32:25;3.67;;;3.33;;
32292;SDS011;43233;48.608;8.838;2022-10-26T00:34:51;6.10;;;3.07;;
32292;SDS011;43233;48.608;8.838;2022-10-26T00:37:17;3.73;;;3.33;;
32292;SDS011;43233;48.608;8.838;2022-10-26T00:39:42;5.87;;;3.70;;
32292;SDS011;43233;48.608;8.838;2022-10-26T00:42:12;4.30;;;3.30;;
32292;SDS011;43233;48.608;8.838;2022-10-26T00:47:16;4.93;;;3.20;;
32292;SDS011;43233;48.608;8.838;2022-10-26T00:49:49;6.60;;;3.97;;
32292;SDS011;43233;48.608;8.838;2022-10-26T00:52:18;6.37;;;4.53;;
32292;SDS011;43233;48.608;8.838;2022-10-26T00:54:44;3.40;;;3.10;;
32292;SDS011;43233;48.608;8.838;2022-10-26T00:57:10;6.93;;;3.27;;
32292;SDS011;43233;48.608;8.838;2022-10-26T00:59:38;3.90;;;3.60;;
32292;SDS011;43233;48.608;8.838;2022-10-26T01:02:04;9.50;;;4.00;;
32292;SDS011;43233;48.608;8.838;2022-10-26T01:04:31;5.27;;;3.80;;
32292;SDS011;43233;48.608;8.838;2022-10-26T01:06:58;5.13;;;4.70;;
32292;SDS011;43233;48.608;8.838;2022-10-26T01:09:27;5.13;;;3.97;;
32292;SDS011;43233;48.608;8.838;2022-10-26T01:11:52;5.23;;;4.40;;
32292;SDS011;43233;48.608;8.838;2022-10-26T01:14:18;4.33;;;3.93;;
32292;SDS011;43233;48.608;8.838;2022-10-26T01:31:05;3.70;;;3.40;;
32292;SDS011;43233;48.608;8.838;2022-10-26T01:33:40;6.53;;;4.10;;
32292;SDS011;43233;48.608;8.838;2022-10-26T01:38:55;4.03;;;3.50;;
32292;SDS011;43233;48.608;8.838;2022-10-26T01:41:43;5.40;;;3.50;;
32292;SDS011;43233;48.608;8.838;2022-10-26T01:44:20;5.97;;;4.67;;
32292;SDS011;43233;48.608;8.838;2022-10-26T01:46:53;6.40;;;3.83;;
32292;SDS011;43233;48.608;8.838;2022-10-26T01:49:23;5.03;;;4.40;;
32292;SDS011;43233;48.608;8.838;2022-10-26T01:51:52;5.90;;;4.60;;
32292;SDS011;43233;48.608;8.838;2022-10-26T01:54:17;5.40;;;4.53;;
32292;SDS011;43233;48.608;8.838;2022-10-26T01:56:44;7.03;;;4.70;;
32292;SDS011;43233;48.608;8.838;2022-10-26T02:13:32;6.73;;;5.00;;
32292;SDS011;43233;48.608;8.838;2022-10-26T02:18:49;6.23;;;5.03;;
32292;SDS011;43233;48.608;8.838;2022-10-26T02:21:46;9.87;;;3.63;;
32292;SDS011;43233;48.608;8.838;2022-10-26T02:24:15;3.60;;;3.30;;
32292;SDS011;43233;48.608;8.838;2022-10-26T02:26:43;12.10;;;3.67;;
32292;SDS011;43233;48.608;8.838;2022-10-26T02:29:12;4.40;;;2.90;;
32292;SDS011;43233;48.608;8.838;2022-10-26T02:31:41;4.63;;;3.47;;
32292;SDS011;43233;48.608;8.838;2022-10-26T02:34:09;3.67;;;3.03;;
32292;SDS011;43233;48.608;8.838;2022-10-26T02:36:38;11.10;;;3.23;;
32292;SDS011;43233;48.608;8.838;2022-10-26T02:39:07;3.30;;;2.73;;
32292;SDS011;43233;48.608;8.838;2022-10-26T02:41:35;4.30;;;2.97;;
32292;SDS011;43233;48.608;8.838;2022-10-26T02:44:06;4.17;;;3.13;;
32292;SDS011;43233;48.608;8.838;2022-10-26T02:46:38;3.37;;;3.07;;
32292;SDS011;43233;48.608;8.838;2022-10-26T02:49:04;3.03;;;2.70;;
32292;SDS011;43233;48.608;8.838;2022-10-26T02:51:33;5.90;;;3.13;;
32292;SDS011;43233;48.608;8.838;2022-10-26T02:54:14;8.23;;;2.70;;
32292;SDS011;43233;48.608;8.838;2022-10-26T02:59:52;7.43;;;2.83;;
32292;SDS011;43233;48.608;8.838;2022-10-26T03:02:18;3.10;;;2.50;;
32292;SDS011;43233;48.608;8.838;2022-10-26T03:04:46;4.93;;;2.33;;
32292;SDS011;43233;48.608;8.838;2022-10-26T03:07:19;3.07;;;2.40;;
32292;SDS011;43233;48.608;8.838;2022-10-26T03:09:45;3.80;;;2.27;;
32292;SDS011;43233;48.608;8.838;2022-10-26T03:12:11;2.60;;;2.03;;
32292;SDS011;43233;48.608;8.838;2022-10-26T03:14:36;2.83;;;2.40;;
32292;SDS011;43233;48.608;8.838;2022-10-26T03:17:02;3.23;;;2.13;;
32292;SDS011;43233;48.608;8.838;2022-10-26T03:19:27;3.57;;;3.30;;
32292;SDS011;43233;48.608;8.838;2022-10-26T03:21:53;5.20;;;4.30;;
32292;SDS011;43233;48.608;8.838;2022-10-26T03:24:19;4.00;;;3.60;;
32292;SDS011;43233;48.608;8.838;2022-10-26T03:26:44;7.23;;;3.97;;
32292;SDS011;43233;48.608;8.838;2022-10-26T03:29:10;4.63;;;4.10;;
32292;SDS011;43233;48.608;8.838;2022-10-26T03:31:35;6.07;;;3.90;;
32292;SDS011;43233;48.608;8.838;2022-10-26T03:34:01;7.07;;;4.00;;
32292;SDS011;43233;48.608;8.838;2022-10-26T03:36:26;5.63;;;3.60;;
32292;SDS011;43233;48.608;8.838;2022-10-26T03:38:52;5.07;;;4.20;;
32292;SDS011;43233;48.608;8.838;2022-10-26T03:41:17;7.93;;;3.67;;
32292;SDS011;43233;48.608;8.838;2022-10-26T03:43:43;6.67;;;4.50;;
32292;SDS011;43233;48.608;8.838;2022-10-26T03:46:09;8.00;;;4.57;;
32292;SDS011;43233;48.608;8.838;2022-10-26T03:48:34;6.30;;;3.90;;
32292;SDS011;43233;48.608;8.838;2022-10-26T03:51:00;14.47;;;4.93;;
32292;SDS011;43233;48.608;8.838;2022-10-26T03:53:26;19.43;;;4.67;;
32292;SDS011;43233;48.608;8.838;2022-10-26T03:55:51;5.50;;;4.60;;
32292;SDS011;43233;48.608;8.838;2022-10-26T03:58:17;7.83;;;4.37;;
32292;SDS011;43233;48.608;8.838;2022-10-26T04:00:42;5.90;;;3.97;;
32292;SDS011;43233;48.608;8.838;2022-10-26T04:03:08;8.93;;;4.00;;
32292;SDS011;43233;48.608;8.838;2022-10-26T04:05:33;12.00;;;4.67;;
32292;SDS011;43233;48.608;8.838;2022-10-26T04:08:00;6.20;;;4.10;;
32292;SDS011;43233;48.608;8.838;2022-10-26T04:10:29;5.90;;;4.20;;
32292;SDS011;43233;48.608;8.838;2022-10-26T04:12:55;5.43;;;4.17;;
32292;SDS011;43233;48.608;8.838;2022-10-26T04:15:22;3.73;;;3.43;;
32292;SDS011;43233;48.608;8.838;2022-10-26T04:17:54;7.90;;;3.50;;
32292;SDS011;43233;48.608;8.838;2022-10-26T04:20:23;6.73;;;4.17;;
32292;SDS011;43233;48.608;8.838;2022-10-26T04:23:00;4.40;;;3.77;;
32292;SDS011;43233;48.608;8.838;2022-10-26T04:25:30;7.57;;;4.60;;
32292;SDS011;43233;48.608;8.838;2022-10-26T04:27:57;7.20;;;4.03;;
32292;SDS011;43233;48.608;8.838;2022-10-26T04:30:23;9.30;;;4.60;;
32292;SDS011;43233;48.608;8.838;2022-10-26T04:32:49;7.07;;;4.27;;
32292;SDS011;43233;48.608;8.838;2022-10-26T04:35:15;5.57;;;3.60;;
32292;SDS011;43233;48.608;8.838;2022-10-26T04:37:40;8.03;;;4.00;;
32292;SDS011;43233;48.608;8.838;2022-10-26T04:40:06;5.10;;;4.23;;
32292;SDS011;43233;48.608;8.838;2022-10-26T04:42:39;6.47;;;4.13;;
32292;SDS011;43233;48.608;8.838;2022-10-26T04:45:11;6.90;;;4.50;;
32292;SDS011;43233;48.608;8.838;2022-10-26T04:47:38;6.50;;;4.40;;
32292;SDS011;43233;48.608;8.838;2022-10-26T04:50:04;9.10;;;4.40;;
32292;SDS011;43233;48.608;8.838;2022-10-26T04:52:31;9.63;;;4.77;;
32292;SDS011;43233;48.608;8.838;2022-10-26T04:54:57;4.47;;;3.60;;
32292;SDS011;43233;48.608;8.838;2022-10-26T04:57:22;3.97;;;3.50;;
32292;SDS011;43233;48.608;8.838;2022-10-26T04:59:48;8.27;;;4.10;;
32292;SDS011;43233;48.608;8.838;2022-10-26T05:02:13;5.17;;;3.40;;
32292;SDS011;43233;48.608;8.838;2022-10-26T05:04:39;8.23;;;4.40;;
32292;SDS011;43233;48.608;8.838;2022-10-26T05:07:05;10.80;;;4.63;;
32292;SDS011;43233;48.608;8.838;2022-10-26T05:09:30;7.80;;;4.43;;
32292;SDS011;43233;48.608;8.838;2022-10-26T05:11:56;4.83;;;4.03;;
32292;SDS011;43233;48.608;8.838;2022-10-26T05:14:21;4.40;;;3.57;;
32292;SDS011;43233;48.608;8.838;2022-10-26T05:16:49;4.63;;;3.67;;
32292;SDS011;43233;48.608;8.838;2022-10-26T05:19:15;8.40;;;4.20;;
32292;SDS011;43233;48.608;8.838;2022-10-26T05:21:40;13.10;;;3.80;;
32292;SDS011;43233;48.608;8.838;2022-10-26T05:24:06;4.43;;;3.33;;
32292;SDS011;43233;48.608;8.838;2022-10-26T05:26:31;7.77;;;3.67;;
32292;SDS011;43233;48.608;8.838;2022-10-26T05:28:57;5.13;;;3.90;;
32292;SDS011;43233;48.608;8.838;2022-10-26T05:31:23;3.87;;;3.40;;
32292;SDS011;43233;48.608;8.838;2022-10-26T05:33:48;3.50;;;3.30;;
32292;SDS011;43233;48.608;8.838;2022-10-26T05:36:18;7.17;;;4.17;;
32292;SDS011;43233;48.608;8.838;2022-10-26T05:38:44;3.87;;;3.50;;
32292;SDS011;43233;48.608;8.838;2022-10-26T05:41:09;4.07;;;3.50;;
32292;SDS011;43233;48.608;8.838;2022-10-26T05:43:35;3.70;;;3.30;;
32292;SDS011;43233;48.608;8.838;2022-10-26T05:46:01;3.63;;;3.33;;
32292;SDS011;43233;48.608;8.838;2022-10-26T05:48:26;7.70;;;3.27;;
32292;SDS011;43233;48.608;8.838;2022-10-26T05:50:52;7.93;;;3.67;;
32292;SDS011;43233;48.608;8.838;2022-10-26T05:53:18;4.07;;;2.90;;
32292;SDS011;43233;48.608;8.838;2022-10-26T05:55:44;11.03;;;3.70;;
32292;SDS011;43233;48.608;8.838;2022-10-26T05:58:10;5.80;;;4.23;;
32292;SDS011;43233;48.608;8.838;2022-10-26T06:00:43;4.70;;;3.60;;
32292;SDS011;43233;48.608;8.838;2022-10-26T06:06:26;4.47;;;3.80;;
32292;SDS011;43233;48.608;8.838;2022-10-26T06:08:56;3.03;;;2.70;;
32292;SDS011;43233;48.608;8.838;2022-10-26T06:11:22;8.10;;;3.33;;
32292;SDS011;43233;48.608;8.838;2022-10-26T06:13:48;7.97;;;2.77;;
32292;SDS011;43233;48.608;8.838;2022-10-26T06:16:23;5.57;;;3.40;;
32292;SDS011;43233;48.608;8.838;2022-10-26T06:19:13;3.20;;;2.90;;
32292;SDS011;43233;48.608;8.838;2022-10-26T06:24:40;6.57;;;3.50;;
32292;SDS011;43233;48.608;8.838;2022-10-26T06:27:15;2.60;;;2.40;;
32292;SDS011;43233;48.608;8.838;2022-10-26T06:32:34;5.40;;;3.07;;
32292;SDS011;43233;48.608;8.838;2022-10-26T06:35:25;5.40;;;2.50;;
32292;SDS011;43233;48.608;8.838;2022-10-26T06:38:02;9.03;;;3.03;;
32292;SDS011;43233;48.608;8.838;2022-10-26T06:40:31;9.83;;;2.90;;
32292;SDS011;43233;48.608;8.838;2022-10-26T06:42:59;13.90;;;3.10;;
32292;SDS011;43233;48.608;8.838;2022-10-26T06:45:25;10.73;;;3.20;;
32292;SDS011;43233;48.608;8.838;2022-10-26T06:50:48;8.47;;;2.70;;
32292;SDS011;43233;48.608;8.838;2022-10-26T06:55:56;4.20;;;2.20;;
32292;SDS011;43233;48.608;8.838;2022-10-26T06:58:24;13.80;;;2.70;;
32292;SDS011;43233;48.608;8.838;2022-10-26T07:00:54;9.40;;;2.43;;
32292;SDS011;43233;48.608;8.838;2022-10-26T07:03:20;3.93;;;2.37;;
32292;SDS011;43233;48.608;8.838;2022-10-26T07:05:46;9.07;;;3.40;;
32292;SDS011;43233;48.608;8.838;2022-10-26T07:08:12;3.13;;;2.30;;
32292;SDS011;43233;48.608;8.838;2022-10-26T07:10:38;5.27;;;3.33;;
32292;SDS011;43233;48.608;8.838;2022-10-26T07:13:04;2.80;;;2.60;;
32292;SDS011;43233;48.608;8.838;2022-10-26T07:15:30;5.13;;;2.80;;
32292;SDS011;43233;48.608;8.838;2022-10-26T07:17:56;9.83;;;3.10;;
32292;SDS011;43233;48.608;8.838;2022-10-26T07:20:22;6.20;;;3.20;;
32292;SDS011;43233;48.608;8.838;2022-10-26T07:22:51;15.00;;;2.97;;
32292;SDS011;43233;48.608;8.838;2022-10-26T07:25:17;7.17;;;3.00;;
32292;SDS011;43233;48.608;8.838;2022-10-26T07:27:43;4.93;;;3.07;;
32292;SDS011;43233;48.608;8.838;2022-10-26T07:30:09;3.07;;;2.87;;
32292;SDS011;43233;48.608;8.838;2022-10-26T07:32:35;5.13;;;2.67;;
32292;SDS011;43233;48.608;8.838;2022-10-26T07:35:00;3.97;;;3.03;;
32292;SDS011;43233;48.608;8.838;2022-10-26T07:37:26;6.17;;;3.00;;
32292;SDS011;43233;48.608;8.838;2022-10-26T07:39:52;4.57;;;3.40;;
32292;SDS011;43233;48.608;8.838;2022-10-26T07:42:17;4.50;;;3.00;;
32292;SDS011;43233;48.608;8.838;2022-10-26T07:44:43;4.00;;;2.40;;
32292;SDS011;43233;48.608;8.838;2022-10-26T07:47:09;6.90;;;2.87;;
32292;SDS011;43233;48.608;8.838;2022-10-26T07:49:35;3.50;;;2.93;;
32292;SDS011;43233;48.608;8.838;2022-10-26T07:52:00;5.70;;;2.50;;
32292;SDS011;43233;48.608;8.838;2022-10-26T07:54:26;6.17;;;2.73;;
32292;SDS011;43233;48.608;8.838;2022-10-26T07:56:51;8.77;;;2.73;;
32292;SDS011;43233;48.608;8.838;2022-10-26T07:59:17;6.60;;;2.80;;
32292;SDS011;43233;48.608;8.838;2022-10-26T08:01:43;5.47;;;2.50;;
32292;SDS011;43233;48.608;8.838;2022-10-26T08:04:08;5.80;;;3.10;;
32292;SDS011;43233;48.608;8.838;2022-10-26T08:06:34;5.10;;;2.50;;
32292;SDS011;43233;48.608;8.838;2022-10-26T08:09:00;4.97;;;2.43;;
32292;SDS011;43233;48.608;8.838;2022-10-26T08:11:26;4.87;;;2.67;;
32292;SDS011;43233;48.608;8.838;2022-10-26T08:13:52;5.00;;;2.83;;
32292;SDS011;43233;48.608;8.838;2022-10-26T08:16:18;8.20;;;3.10;;
32292;SDS011;43233;48.608;8.838;2022-10-26T08:18:48;10.00;;;2.70;;
32292;SDS011;43233;48.608;8.838;2022-10-26T08:21:16;4.93;;;2.50;;
32292;SDS011;43233;48.608;8.838;2022-10-26T08:23:42;6.20;;;3.00;;
32292;SDS011;43233;48.608;8.838;2022-10-26T08:26:08;2.77;;;2.50;;
32292;SDS011;43233;48.608;8.838;2022-10-26T08:28:37;3.90;;;2.60;;
32292;SDS011;43233;48.608;8.838;2022-10-26T08:31:03;2.70;;;2.50;;
32292;SDS011;43233;48.608;8.838;2022-10-26T08:33:29;3.27;;;2.73;;
32292;SDS011;43233;48.608;8.838;2022-10-26T08:35:56;2.83;;;2.53;;
32292;SDS011;43233;48.608;8.838;2022-10-26T08:38:22;4.17;;;3.27;;
32292;SDS011;43233;48.608;8.838;2022-10-26T08:40:48;5.80;;;2.77;;
32292;SDS011;43233;48.608;8.838;2022-10-26T08:43:15;3.07;;;2.10;;
32292;SDS011;43233;48.608;8.838;2022-10-26T08:45:58;5.87;;;2.47;;
32292;SDS011;43233;48.608;8.838;2022-10-26T08:48:31;2.50;;;2.30;;
32292;SDS011;43233;48.608;8.838;2022-10-26T08:51:05;5.80;;;3.07;;
32292;SDS011;43233;48.608;8.838;2022-10-26T08:53:37;7.43;;;3.50;;
32292;SDS011;43233;48.608;8.838;2022-10-26T08:58:50;3.50;;;2.77;;
32292;SDS011;43233;48.608;8.838;2022-10-26T09:01:30;5.33;;;2.60;;
32292;SDS011;43233;48.608;8.838;2022-10-26T09:03:57;4.87;;;3.23;;
32292;SDS011;43233;48.608;8.838;2022-10-26T09:23:30;3.43;;;2.97;;
32292;SDS011;43233;48.608;8.838;2022-10-26T09:26:02;4.33;;;3.37;;
32292;SDS011;43233;48.608;8.838;2022-10-26T09:28:34;13.60;;;3.73;;
32292;SDS011;43233;48.608;8.838;2022-10-26T09:31:02;5.17;;;3.40;;
32292;SDS011;43233;48.608;8.838;2022-10-26T09:33:29;10.30;;;3.00;;
32292;SDS011;43233;48.608;8.838;2022-10-26T09:43:54;8.50;;;2.70;;
32292;SDS011;43233;48.608;8.838;2022-10-26T09:46:17;4.03;;;2.40;;
32292;SDS011;43233;48.608;8.838;2022-10-26T09:48:50;5.87;;;2.53;;
32292;SDS011;43233;48.608;8.838;2022-10-26T09:51:19;5.80;;;3.13;;
32292;SDS011;43233;48.608;8.838;2022-10-26T09:53:47;9.50;;;3.37;;
32292;SDS011;43233;48.608;8.838;2022-10-26T09:56:14;5.80;;;2.50;;
32292;SDS011;43233;48.608;8.838;2022-10-26T09:58:43;4.73;;;2.47;;
32292;SDS011;43233;48.608;8.838;2022-10-26T10:01:34;4.90;;;2.97;;
32292;SDS011;43233;48.608;8.838;2022-10-26T10:04:08;9.73;;;3.10;;
32292;SDS011;43233;48.608;8.838;2022-10-26T10:06:34;3.10;;;2.27;;
32292;SDS011;43233;48.608;8.838;2022-10-26T10:09:15;5.03;;;2.50;;
32292;SDS011;43233;48.608;8.838;2022-10-26T10:14:12;2.57;;;1.77;;
32292;SDS011;43233;48.608;8.838;2022-10-26T10:16:48;6.93;;;2.00;;
32292;SDS011;43233;48.608;8.838;2022-10-26T10:19:21;3.57;;;2.33;;
32292;SDS011;43233;48.608;8.838;2022-10-26T10:21:49;5.90;;;2.60;;
32292;SDS011;43233;48.608;8.838;2022-10-26T10:26:59;8.20;;;2.27;;
32292;SDS011;43233;48.608;8.838;2022-10-26T10:29:44;4.37;;;1.83;;
32292;SDS011;43233;48.608;8.838;2022-10-26T10:34:51;8.63;;;2.60;;
32292;SDS011;43233;48.608;8.838;2022-10-26T10:40:03;2.23;;;1.90;;
32292;SDS011;43233;48.608;8.838;2022-10-26T10:42:33;6.83;;;2.40;;
32292;SDS011;43233;48.608;8.838;2022-10-26T10:45:03;6.10;;;1.90;;
32292;SDS011;43233;48.608;8.838;2022-10-26T10:47:31;3.63;;;2.10;;
32292;SDS011;43233;48.608;8.838;2022-10-26T10:52:28;8.40;;;2.73;;
32292;SDS011;43233;48.608;8.838;2022-10-26T10:55:17;8.73;;;2.40;;
32292;SDS011;43233;48.608;8.838;2022-10-26T11:00:37;17.70;;;2.87;;
32292;SDS011;43233;48.608;8.838;2022-10-26T11:03:14;7.43;;;2.47;;
32292;SDS011;43233;48.608;8.838;2022-10-26T11:11:12;7.53;;;2.23;;
32292;SDS011;43233;48.608;8.838;2022-10-26T11:14:24;5.37;;;2.23;;
32292;SDS011;43233;48.608;8.838;2022-10-26T11:16:37;4.90;;;1.60;;
32292;SDS011;43233;48.608;8.838;2022-10-26T11:19:14;7.00;;;1.90;;
32292;SDS011;43233;48.608;8.838;2022-10-26T11:21:52;3.27;;;1.80;;
32292;SDS011;43233;48.608;8.838;2022-10-26T11:24:21;3.60;;;2.00;;
32292;SDS011;43233;48.608;8.838;2022-10-26T11:29:22;4.90;;;2.37;;
32292;SDS011;43233;48.608;8.838;2022-10-26T11:31:53;8.40;;;2.57;;
32292;SDS011;43233;48.608;8.838;2022-10-26T11:34:26;5.97;;;1.80;;
32292;SDS011;43233;48.608;8.838;2022-10-26T11:36:56;9.27;;;2.20;;
32292;SDS011;43233;48.608;8.838;2022-10-26T11:39:32;16.47;;;2.13;;
32292;SDS011;43233;48.608;8.838;2022-10-26T11:42:08;7.27;;;2.33;;
32292;SDS011;43233;48.608;8.838;2022-10-26T11:45:03;9.10;;;2.10;;
32292;SDS011;43233;48.608;8.838;2022-10-26T11:47:53;2.80;;;2.07;;
32292;SDS011;43233;48.608;8.838;2022-10-26T11:50:35;2.87;;;1.97;;
32292;SDS011;43233;48.608;8.838;2022-10-26T11:55:40;6.00;;;1.83;;
32292;SDS011;43233;48.608;8.838;2022-10-26T11:58:09;4.67;;;1.57;;
32292;SDS011;43233;48.608;8.838;2022-10-26T12:00:39;4.87;;;2.10;;
32292;SDS011;43233;48.608;8.838;2022-10-26T12:03:17;4.83;;;1.40;;
32292;SDS011;43233;48.608;8.838;2022-10-26T12:05:51;3.87;;;2.13;;
32292;SDS011;43233;48.608;8.838;2022-10-26T12:08:19;7.37;;;2.47;;
32292;SDS011;43233;48.608;8.838;2022-10-26T12:10:57;3.30;;;2.07;;
32292;SDS011;43233;48.608;8.838;2022-10-26T12:13:27;3.60;;;1.67;;
32292;SDS011;43233;48.608;8.838;2022-10-26T12:16:15;4.60;;;2.00;;
32292;SDS011;43233;48.608;8.838;2022-10-26T12:19:09;5.00;;;2.17;;
32292;SDS011;43233;48.608;8.838;2022-10-26T12:21:38;4.40;;;2.10;;
32292;SDS011;43233;48.608;8.838;2022-10-26T12:26:56;2.63;;;1.77;;
32292;SDS011;43233;48.608;8.838;2022-10-26T12:29:31;5.47;;;2.10;;
32292;SDS011;43233;48.608;8.838;2022-10-26T12:32:03;8.73;;;2.20;;
32292;SDS011;43233;48.608;8.838;2022-10-26T12:37:21;2.77;;;1.83;;
32292;SDS011;43233;48.608;8.838;2022-10-26T12:39:48;4.87;;;1.47;;
32292;SDS011;43233;48.608;8.838;2022-10-26T12:44:40;4.00;;;1.93;;
32292;SDS011;43233;48.608;8.838;2022-10-26T13:00:25;5.40;;;1.90;;
32292;SDS011;43233;48.608;8.838;2022-10-26T13:08:25;5.67;;;1.90;;
32292;SDS011;43233;48.608;8.838;2022-10-26T13:13:30;4.63;;;1.63;;
32292;SDS011;43233;48.608;8.838;2022-10-26T13:15:58;6.73;;;2.17;;
32292;SDS011;43233;48.608;8.838;2022-10-26T13:18:25;6.10;;;2.70;;
32292;SDS011;43233;48.608;8.838;2022-10-26T13:20:53;4.77;;;1.53;;
32292;SDS011;43233;48.608;8.838;2022-10-26T13:23:29;9.17;;;2.53;;
32292;SDS011;43233;48.608;8.838;2022-10-26T13:31:03;10.80;;;2.10;;
32292;SDS011;43233;48.608;8.838;2022-10-26T13:33:35;8.60;;;1.80;;
32292;SDS011;43233;48.608;8.838;2022-10-26T13:36:15;7.40;;;2.30;;
32292;SDS011;43233;48.608;8.838;2022-10-26T13:38:53;6.27;;;1.70;;
32292;SDS011;43233;48.608;8.838;2022-10-26T13:41:25;6.57;;;2.10;;
32292;SDS011;43233;48.608;8.838;2022-10-26T13:43:58;15.93;;;1.77;;
32292;SDS011;43233;48.608;8.838;2022-10-26T13:46:29;4.60;;;2.40;;
32292;SDS011;43233;48.608;8.838;2022-10-26T13:49:02;4.93;;;2.43;;
32292;SDS011;43233;48.608;8.838;2022-10-26T13:51:42;3.90;;;1.53;;
32292;SDS011;43233;48.608;8.838;2022-10-26T13:56:41;3.90;;;1.73;;
32292;SDS011;43233;48.608;8.838;2022-10-26T13:59:18;5.50;;;1.47;;
32292;SDS011;43233;48.608;8.838;2022-10-26T14:01:45;4.30;;;1.50;;
32292;SDS011;43233;48.608;8.838;2022-10-26T14:04:39;2.90;;;1.80;;
32292;SDS011;43233;48.608;8.838;2022-10-26T14:07:05;5.33;;;1.73;;
32292;SDS011;43233;48.608;8.838;2022-10-26T14:09:40;4.90;;;2.03;;
32292;SDS011;43233;48.608;8.838;2022-10-26T14:12:08;5.47;;;2.00;;
32292;SDS011;43233;48.608;8.838;2022-10-26T14:14:35;5.17;;;2.03;;
32292;SDS011;43233;48.608;8.838;2022-10-26T14:17:02;4.87;;;1.97;;
32292;SDS011;43233;48.608;8.838;2022-10-26T14:21:59;2.90;;;1.60;;
32292;SDS011;43233;48.608;8.838;2022-10-26T14:24:29;9.70;;;1.90;;
32292;SDS011;43233;48.608;8.838;2022-10-26T14:27:13;2.93;;;1.50;;
32292;SDS011;43233;48.608;8.838;2022-10-26T14:29:42;5.80;;;1.97;;
32292;SDS011;43233;48.608;8.838;2022-10-26T14:32:51;5.87;;;1.90;;
32292;SDS011;43233;48.608;8.838;2022-10-26T14:34:57;11.00;;;2.27;;
32292;SDS011;43233;48.608;8.838;2022-10-26T14:37:25;9.77;;;1.87;;
32292;SDS011;43233;48.608;8.838;2022-10-26T14:40:16;10.70;;;1.80;;
32292;SDS011;43233;48.608;8.838;2022-10-26T14:42:44;5.23;;;1.47;;
32292;SDS011;43233;48.608;8.838;2022-10-26T14:45:28;9.97;;;2.03;;
32292;SDS011;43233;48.608;8.838;2022-10-26T14:47:55;4.03;;;1.67;;
32292;SDS011;43233;48.608;8.838;2022-10-26T14:50:22;5.67;;;1.57;;
32292;SDS011;43233;48.608;8.838;2022-10-26T14:52:52;3.03;;;1.63;;
32292;SDS011;43233;48.608;8.838;2022-10-26T14:55:20;4.27;;;1.67;;
32292;SDS011;43233;48.608;8.838;2022-10-26T14:57:47;4.60;;;1.77;;
32292;SDS011;43233;48.608;8.838;2022-10-26T15:02:47;5.80;;;1.93;;
32292;SDS011;43233;48.608;8.838;2022-10-26T15:07:50;4.43;;;1.67;;
32292;SDS011;43233;48.608;8.838;2022-10-26T15:16:05;3.90;;;1.90;;
32292;SDS011;43233;48.608;8.838;2022-10-26T15:18:41;11.30;;;2.20;;
32292;SDS011;43233;48.608;8.838;2022-10-26T15:21:25;5.73;;;2.13;;
32292;SDS011;43233;48.608;8.838;2022-10-26T15:23:55;8.00;;;2.30;;
32292;SDS011;43233;48.608;8.838;2022-10-26T15:26:21;3.07;;;1.53;;
32292;SDS011;43233;48.608;8.838;2022-10-26T15:28:47;11.87;;;2.47;;
32292;SDS011;43233;48.608;8.838;2022-10-26T15:38:39;8.47;;;2.30;;
32292;SDS011;43233;48.608;8.838;2022-10-26T15:41:12;4.90;;;2.10;;
32292;SDS011;43233;48.608;8.838;2022-10-26T15:43:55;2.50;;;2.00;;
32292;SDS011;43233;48.608;8.838;2022-10-26T15:46:27;10.30;;;2.90;;
32292;SDS011;43233;48.608;8.838;2022-10-26T15:48:55;5.73;;;2.67;;
32292;SDS011;43233;48.608;8.838;2022-10-26T15:51:22;5.20;;;1.93;;
32292;SDS011;43233;48.608;8.838;2022-10-26T15:53:48;5.13;;;1.90;;
32292;SDS011;43233;48.608;8.838;2022-10-26T15:56:15;7.97;;;2.50;;
32292;SDS011;43233;48.608;8.838;2022-10-26T15:58:42;8.23;;;2.40;;
32292;SDS011;43233;48.608;8.838;2022-10-26T16:01:14;6.07;;;2.23;;
32292;SDS011;43233;48.608;8.838;2022-10-26T16:03:41;5.10;;;2.00;;
32292;SDS011;43233;48.608;8.838;2022-10-26T16:06:08;3.47;;;2.03;;
32292;SDS011;43233;48.608;8.838;2022-10-26T16:08:39;9.53;;;2.13;;
32292;SDS011;43233;48.608;8.838;2022-10-26T16:11:05;4.40;;;1.90;;
32292;SDS011;43233;48.608;8.838;2022-10-26T16:13:30;10.67;;;3.90;;
32292;SDS011;43233;48.608;8.838;2022-10-26T16:15:56;13.30;;;3.10;;
32292;SDS011;43233;48.608;8.838;2022-10-26T16:18:22;5.07;;;2.70;;
32292;SDS011;43233;48.608;8.838;2022-10-26T16:20:48;4.10;;;1.97;;
32292;SDS011;43233;48.608;8.838;2022-10-26T16:23:13;5.10;;;2.17;;
32292;SDS011;43233;48.608;8.838;2022-10-26T16:25:40;8.20;;;2.03;;
32292;SDS011;43233;48.608;8.838;2022-10-26T16:28:08;11.53;;;2.93;;
32292;SDS011;43233;48.608;8.838;2022-10-26T16:30:36;5.63;;;2.70;;
32292;SDS011;43233;48.608;8.838;2022-10-26T16:33:02;7.73;;;2.73;;
32292;SDS011;43233;48.608;8.838;2022-10-26T16:35:27;9.47;;;2.53;;
32292;SDS011;43233;48.608;8.838;2022-10-26T16:37:53;6.17;;;2.50;;
32292;SDS011;43233;48.608;8.838;2022-10-26T16:40:18;9.07;;;3.10;;
32292;SDS011;43233;48.608;8.838;2022-10-26T16:42:44;3.70;;;2.30;;
32292;SDS011;43233;48.608;8.838;2022-10-26T16:45:10;7.87;;;2.90;;
32292;SDS011;43233;48.608;8.838;2022-10-26T16:47:37;10.00;;;3.00;;
32292;SDS011;43233;48.608;8.838;2022-10-26T16:50:04;11.53;;;2.60;;
32292;SDS011;43233;48.608;8.838;2022-10-26T16:52:34;7.83;;;2.50;;
32292;SDS011;43233;48.608;8.838;2022-10-26T16:55:00;4.50;;;2.63;;
32292;SDS011;43233;48.608;8.838;2022-10-26T16:57:27;12.20;;;2.57;;
32292;SDS011;43233;48.608;8.838;2022-10-26T16:59:52;12.27;;;2.73;;
32292;SDS011;43233;48.608;8.838;2022-10-26T17:02:18;6.00;;;2.17;;
32292;SDS011;43233;48.608;8.838;2022-10-26T17:04:44;4.63;;;3.03;;
32292;SDS011;43233;48.608;8.838;2022-10-26T17:07:10;7.70;;;2.80;;
32292;SDS011;43233;48.608;8.838;2022-10-26T17:09:35;4.17;;;1.90;;
32292;SDS011;43233;48.608;8.838;2022-10-26T17:12:01;6.33;;;3.10;;
32292;SDS011;43233;48.608;8.838;2022-10-26T17:14:28;8.30;;;2.37;;
32292;SDS011;43233;48.608;8.838;2022-10-26T17:16:53;9.83;;;2.87;;
32292;SDS011;43233;48.608;8.838;2022-10-26T17:19:19;9.50;;;3.20;;
32292;SDS011;43233;48.608;8.838;2022-10-26T17:21:44;8.80;;;3.10;;
32292;SDS011;43233;48.608;8.838;2022-10-26T17:24:10;4.97;;;2.60;;
32292;SDS011;43233;48.608;8.838;2022-10-26T17:26:37;5.43;;;2.83;;
32292;SDS011;43233;48.608;8.838;2022-10-26T17:29:03;10.93;;;3.27;;
32292;SDS011;43233;48.608;8.838;2022-10-26T17:31:29;5.20;;;3.20;;
32292;SDS011;43233;48.608;8.838;2022-10-26T17:33:55;8.47;;;2.90;;
32292;SDS011;43233;48.608;8.838;2022-10-26T17:36:22;13.80;;;5.60;;
32292;SDS011;43233;48.608;8.838;2022-10-26T17:38:50;19.90;;;5.97;;
32292;SDS011;43233;48.608;8.838;2022-10-26T17:41:18;21.93;;;5.63;;
32292;SDS011;43233;48.608;8.838;2022-10-26T17:43:45;15.57;;;4.50;;